Time;durP1;ratioP1;P1;durP2;ratioP2;P2;SDS_P1;SDS_P2;PMS_P1;PMS_P2;Temp;Humidity;BMP_temperature;BMP_pressure;BME280_temperature;BME280_humidity;BME280_pressure;Samples;Min_cycle;Max_cycle;Signal;HPM_P1;HPM_P2
2023/09/04 00:01:59;;;;;;;6.18;5.57;;;;;;;17.20;100.00;95153.28;5009585;28;20186;-92
2023/09/04 00:04:24;;;;;;;6.15;5.75;;;;;;;17.21;100.00;95162.72;5007853;28;20030;-92
2023/09/04 00:06:49;;;;;;;6.18;5.78;;;;;;;17.32;100.00;95154.25;4991329;28;20348;-92
2023/09/04 00:09:15;;;;;;;5.95;5.55;;;;;;;17.21;100.00;95135.78;5007723;28;20026;-92
2023/09/04 00:11:40;;;;;;;6.25;5.75;;;;;;;17.21;100.00;95141.00;5009929;28;20034;-94
2023/09/04 00:14:06;;;;;;;6.50;6.00;;;;;;;17.16;100.00;95146.03;5009319;28;20029;-95
2023/09/04 00:16:31;;;;;;;6.20;5.60;;;;;;;17.28;100.00;95154.84;5007670;28;20041;-94
2023/09/04 00:18:57;;;;;;;6.60;6.00;;;;;;;17.31;100.00;95162.28;5007894;28;20026;-93
2023/09/04 00:21:22;;;;;;;6.45;6.05;;;;;;;17.21;100.00;95162.72;5012476;28;20018;-96
2023/09/04 00:23:47;;;;;;;5.50;5.10;;;;;;;17.27;100.00;95167.13;5012390;28;20475;-96
2023/09/04 00:26:13;;;;;;;5.57;5.18;;;;;;;17.44;100.00;95164.88;5006747;28;20037;-94
2023/09/04 00:28:38;;;;;;;7.88;6.50;;;;;;;17.44;100.00;95157.00;5009707;28;20116;-96
2023/09/04 00:31:04;;;;;;;6.75;6.35;;;;;;;17.52;100.00;95151.56;5009166;28;20061;-95
2023/09/04 00:33:29;;;;;;;6.75;6.25;;;;;;;17.60;100.00;95156.56;5011454;28;20042;-96
2023/09/04 00:35:54;;;;;;;6.93;6.50;;;;;;;17.61;100.00;95131.19;5011138;28;20034;-96
2023/09/04 00:38:20;;;;;;;7.93;7.05;;;;;;;17.64;100.00;95126.34;5012488;28;20026;-96
2023/09/04 00:40:45;;;;;;;7.70;6.97;;;;;;;17.68;100.00;95122.28;5010907;28;20046;-95
2023/09/04 00:43:11;;;;;;;7.97;7.22;;;;;;;17.60;100.00;95119.91;5012475;28;20033;-94
2023/09/04 00:45:36;;;;;;;7.63;7.03;;;;;;;17.64;100.00;95110.59;5008540;28;20038;-92
2023/09/04 00:48:03;;;;;;;10.40;6.80;;;;;;;17.64;100.00;95079.19;5005949;28;20030;-87
2023/09/04 00:50:29;;;;;;;7.35;6.72;;;;;;;17.60;100.00;95072.75;4989818;28;20072;-89
2023/09/04 00:52:58;;;;;;;7.22;6.63;;;;;;;17.38;100.00;95068.81;5006911;28;20148;-93
2023/09/04 00:55:24;;;;;;;6.85;6.15;;;;;;;17.16;100.00;95081.41;5008699;28;20094;-90
2023/09/04 00:57:51;;;;;;;6.55;5.82;;;;;;;17.03;100.00;95073.59;5005772;28;20037;-88
2023/09/04 01:00:21;;;;;;;5.53;5.13;;;;;;;17.01;100.00;95059.94;5007121;28;20164;-93
2023/09/04 01:02:47;;;;;;;6.32;4.50;;;;;;;17.00;100.00;95029.53;5006466;28;20037;-90
2023/09/04 01:05:13;;;;;;;4.20;4.00;;;;;;;17.03;100.00;95017.84;5010004;28;20030;-93
2023/09/04 01:07:40;;;;;;;5.75;4.50;;;;;;;17.11;100.00;95009.75;5010353;28;20479;-92
2023/09/04 01:10:07;;;;;;;5.38;4.88;;;;;;;17.29;100.00;94997.56;5009719;28;20030;-90
2023/09/04 01:12:55;;;;;;;4.60;4.25;;;;;;;17.20;100.00;94987.56;4994041;28;20057;-91
2023/09/04 01:15:21;;;;;;;4.82;3.90;;;;;;;17.14;100.00;94980.53;4996503;28;20052;-94
2023/09/04 01:17:47;;;;;;;5.18;4.78;;;;;;;17.04;100.00;95011.59;5016089;28;20590;-96
2023/09/04 01:20:33;;;;;;;5.80;5.40;;;;;;;17.02;100.00;95029.31;5021512;28;20036;-94
2023/09/04 01:22:59;;;;;;;6.18;4.55;;;;;;;16.98;100.00;95039.41;5016600;28;20037;-93
2023/09/04 01:25:41;;;;;;;5.20;4.70;;;;;;;16.72;100.00;95036.88;5016477;28;20036;-92
2023/09/04 01:28:24;;;;;;;6.13;4.78;;;;;;;16.55;100.00;95033.91;4997002;28;20018;-96
2023/09/04 01:30:55;;;;;;;4.93;4.47;;;;;;;16.55;100.00;95030.50;5020087;28;20041;-96
2023/09/04 01:33:24;;;;;;;5.90;5.50;;;;;;;16.50;100.00;95030.28;5007099;28;20045;-96
2023/09/04 01:35:49;;;;;;;;;;;;;;;16.67;100.00;95028.84;5028509;28;20022;-95
2023/09/04 01:38:15;;;;;;;5.22;4.72;;;;;;;16.61;100.00;95014.78;5035075;28;19916;-96
2023/09/04 01:40:41;;;;;;;5.22;4.75;;;;;;;16.67;100.00;95013.94;5010296;28;20057;-96
2023/09/04 01:43:06;;;;;;;5.82;4.88;;;;;;;16.67;100.00;95018.38;5030253;28;20057;-96
2023/09/04 01:45:31;;;;;;;5.80;5.43;;;;;;;16.75;100.00;95020.78;5020400;28;20508;-96
2023/09/04 01:47:57;;;;;;;5.47;4.88;;;;;;;16.69;100.00;95017.19;5012354;28;20021;-96
2023/09/04 01:50:22;;;;;;;5.50;5.03;;;;;;;16.65;100.00;95009.94;5031978;28;20022;-96
2023/09/04 01:52:47;;;;;;;4.30;3.90;;;;;;;16.57;100.00;95010.97;5030907;28;20490;-96
2023/09/04 01:55:13;;;;;;;7.88;5.53;;;;;;;16.62;100.00;95013.78;5031326;28;20029;-96
2023/09/04 01:57:38;;;;;;;5.05;4.65;;;;;;;16.63;100.00;95032.91;5020238;28;20403;-96
2023/09/04 02:00:04;;;;;;;5.65;5.15;;;;;;;16.61;100.00;95035.69;5021360;28;20107;-96
2023/09/04 02:02:30;;;;;;;6.15;5.65;;;;;;;16.56;100.00;95035.53;4994923;28;20030;-96
2023/09/04 02:04:55;;;;;;;5.00;4.50;;;;;;;16.42;100.00;95022.66;5028411;28;20030;-96
2023/09/04 02:07:21;;;;;;;5.50;5.03;;;;;;;16.25;100.00;95020.47;5032739;28;20383;-96
2023/09/04 02:09:46;;;;;;;5.82;5.32;;;;;;;16.29;100.00;95024.28;5020128;28;20033;-96
2023/09/04 02:12:11;;;;;;;6.03;5.60;;;;;;;16.06;100.00;95029.13;5014094;28;20109;-96
2023/09/04 02:14:37;;;;;;;7.53;6.22;;;;;;;16.16;100.00;95058.28;5012279;28;20041;-96
2023/09/04 02:17:03;;;;;;;7.07;6.50;;;;;;;16.08;100.00;95061.09;5008956;28;20112;-96
2023/09/04 02:19:28;;;;;;;8.23;6.18;;;;;;;16.23;100.00;95059.06;5010685;28;20030;-96
2023/09/04 02:21:54;;;;;;;8.45;7.75;;;;;;;16.04;100.00;95067.72;5010131;28;20025;-96
2023/09/04 02:24:19;;;;;;;6.20;5.60;;;;;;;16.16;100.00;95068.72;4993734;28;20022;-96
2023/09/04 02:26:45;;;;;;;6.68;5.35;;;;;;;16.06;100.00;95070.13;4998591;28;20625;-96
2023/09/04 02:29:10;;;;;;;8.55;5.85;;;;;;;16.03;100.00;95078.38;5017781;28;20508;-96
2023/09/04 02:31:35;;;;;;;6.40;5.88;;;;;;;16.11;100.00;95071.16;4993619;28;20095;-96
2023/09/04 02:34:01;;;;;;;6.95;6.53;;;;;;;16.13;100.00;95074.34;4992341;28;20407;-95
2023/09/04 02:36:27;;;;;;;7.05;6.45;;;;;;;16.21;100.00;95070.75;5009907;28;20037;-95
2023/09/04 02:38:52;;;;;;;8.25;7.45;;;;;;;16.23;100.00;95069.53;5008698;28;20105;-96
2023/09/04 02:41:17;;;;;;;10.80;7.75;;;;;;;16.23;100.00;95059.06;5009523;28;20049;-95
2023/09/04 02:43:43;;;;;;;8.38;7.60;;;;;;;16.17;100.00;95059.09;5008678;28;20021;-96
2023/09/04 02:46:08;;;;;;;9.27;8.57;;;;;;;16.17;100.00;95061.69;5011931;28;20021;-96
2023/09/04 02:48:33;;;;;;;8.88;8.18;;;;;;;16.14;100.00;95070.75;5008677;28;20535;-96
2023/09/04 02:50:59;;;;;;;9.90;8.93;;;;;;;15.98;100.00;95079.00;5032123;28;20030;-93
2023/09/04 02:53:27;;;;;;;8.90;8.07;;;;;;;15.78;100.00;95078.97;5026536;28;20010;-96
2023/09/04 02:55:52;;;;;;;9.48;8.88;;;;;;;15.81;100.00;95099.47;5020076;28;20026;-94
2023/09/04 02:58:18;;;;;;;8.55;7.75;;;;;;;15.78;100.00;95110.31;5025851;28;20498;-96
2023/09/04 03:00:43;;;;;;;12.15;9.98;;;;;;;15.78;100.00;95117.34;5028234;28;20085;-96
2023/09/04 03:03:09;;;;;;;8.43;7.93;;;;;;;15.77;100.00;95111.31;5001815;28;20113;-96
2023/09/04 03:05:34;;;;;;;10.30;9.40;;;;;;;15.82;100.00;95118.56;5015489;28;20488;-95
2023/09/04 03:07:59;;;;;;;9.73;9.10;;;;;;;15.83;100.00;95117.53;5009581;28;20033;-96
2023/09/04 03:10:25;;;;;;;10.05;9.25;;;;;;;15.86;100.00;95116.34;5029296;28;20077;-95
2023/09/04 03:12:50;;;;;;;13.30;12.30;;;;;;;15.83;100.00;95112.31;5032183;28;20006;-96
2023/09/04 03:15:16;;;;;;;11.65;10.43;;;;;;;15.84;100.00;95116.53;5031609;28;20033;-96
2023/09/04 03:17:42;;;;;;;11.05;9.98;;;;;;;15.84;100.00;95111.31;5029563;28;20050;-96
2023/09/04 03:20:09;;;;;;;10.05;9.10;;;;;;;15.85;100.00;95119.97;5031079;28;20022;-96
2023/09/04 03:22:35;;;;;;;11.43;10.45;;;;;;;15.78;100.00;95117.34;5025025;28;20053;-96
2023/09/04 03:25:00;;;;;;;11.70;10.77;;;;;;;15.77;100.00;95134.00;5024385;28;20034;-95
2023/09/04 03:27:26;;;;;;;11.75;10.95;;;;;;;15.77;100.00;95129.59;5023300;28;20038;-96
2023/09/04 03:29:51;;;;;;;12.98;11.07;;;;;;;15.75;100.00;95138.63;5021545;28;20032;-96
2023/09/04 03:32:17;;;;;;;10.60;9.82;;;;;;;15.90;100.00;95141.06;5028940;28;20022;-96
2023/09/04 03:34:42;;;;;;;12.32;11.43;;;;;;;15.85;100.00;95141.66;5032315;28;20030;-96
2023/09/04 03:37:08;;;;;;;11.05;10.20;;;;;;;15.99;100.00;95145.88;5032180;28;20034;-96
2023/09/04 03:39:36;;;;;;;11.68;10.88;;;;;;;16.05;100.00;95136.47;5028850;28;20089;-96
2023/09/04 03:42:02;;;;;;;9.98;9.15;;;;;;;16.19;100.00;95132.84;5034672;28;20030;-96
2023/09/04 03:44:28;;;;;;;10.50;9.70;;;;;;;16.15;100.00;95127.22;5029139;28;20033;-96
2023/09/04 03:46:53;;;;;;;11.25;10.35;;;;;;;16.19;100.00;95109.31;5030705;28;20050;-96
2023/09/04 03:49:19;;;;;;;12.07;11.15;;;;;;;16.21;100.00;95115.97;5011663;28;20427;-96
2023/09/04 03:51:44;;;;;;;12.70;11.57;;;;;;;16.14;100.00;95117.78;5032242;28;20025;-96
2023/09/04 03:54:09;;;;;;;11.85;10.70;;;;;;;16.18;100.00;95110.34;5026684;28;20062;-96
2023/09/04 03:56:35;;;;;;;12.00;10.63;;;;;;;16.18;100.00;95110.34;5012338;28;20036;-96
2023/09/04 03:59:00;;;;;;;11.23;10.20;;;;;;;16.20;100.00;95097.88;5029848;28;20026;-96
2023/09/04 04:01:27;;;;;;;11.43;10.32;;;;;;;16.23;100.00;95100.91;5026001;28;20064;-96
2023/09/04 04:03:53;;;;;;;11.50;10.60;;;;;;;16.24;100.00;95097.28;5027325;28;20086;-96
2023/09/04 04:06:22;;;;;;;12.25;11.20;;;;;;;16.15;100.00;95098.47;5035188;28;20491;-96
2023/09/04 04:08:48;;;;;;;12.73;11.70;;;;;;;16.17;100.00;95109.53;5036182;28;20026;-96
2023/09/04 04:11:13;;;;;;;10.95;10.10;;;;;;;16.09;100.00;95111.53;5034085;28;20106;-96
2023/09/04 04:13:40;;;;;;;10.77;9.85;;;;;;;16.01;100.00;95116.97;5037328;28;20041;-96
2023/09/04 04:18:56;;;;;;;11.10;10.32;;;;;;;16.00;100.00;95123.19;4993869;28;20324;-96
2023/09/04 04:21:21;;;;;;;10.73;10.02;;;;;;;16.01;100.00;95119.59;5699559;22;20020;-96
2023/09/04 04:23:46;;;;;;;12.27;11.20;;;;;;;16.10;100.00;95116.56;5034030;28;20056;-97
2023/09/04 04:26:12;;;;;;;12.93;11.85;;;;;;;16.15;100.00;95116.75;5045076;23;20050;-96
2023/09/04 04:28:37;;;;;;;11.68;10.90;;;;;;;16.18;100.00;95118.19;5028595;28;20404;-94
2023/09/04 04:31:03;;;;;;;14.00;12.00;;;;;;;16.31;100.00;95111.13;5021908;28;20025;-96
2023/09/04 04:33:28;;;;;;;11.57;10.77;;;;;;;16.30;100.00;95120.00;5029657;28;20041;-96
2023/09/04 04:35:54;;;;;;;11.75;10.73;;;;;;;16.38;100.00;95105.91;5017746;28;20100;-96
2023/09/04 04:38:19;;;;;;;13.13;12.07;;;;;;;16.05;100.00;95048.44;5206935;22;20054;-96
2023/09/04 04:40:45;;;;;;;10.90;9.90;;;;;;;16.18;100.00;95066.69;5182181;22;20050;-96
2023/09/04 04:43:11;;;;;;;12.40;11.48;;;;;;;16.09;100.00;95052.25;5369770;23;20056;-96
2023/09/04 04:45:36;;;;;;;12.43;11.43;;;;;;;16.45;100.00;95113.75;5314351;22;20065;-96
2023/09/04 04:48:03;;;;;;;12.27;11.27;;;;;;;16.54;100.00;95110.72;5033739;28;20053;-97
2023/09/04 04:50:28;;;;;;;12.50;11.60;;;;;;;16.56;100.00;95110.56;5027314;28;20029;-96
2023/09/04 04:52:54;;;;;;;12.52;11.55;;;;;;;16.26;100.00;95063.91;5323252;23;20059;-97
2023/09/04 04:55:20;;;;;;;12.15;11.05;;;;;;;16.25;100.00;95053.63;5012435;28;20094;-96
2023/09/04 04:57:45;;;;;;;13.65;12.60;;;;;;;16.32;100.00;95062.28;5329906;23;20053;-96
2023/09/04 05:00:11;;;;;;;12.63;11.52;;;;;;;16.30;100.00;95046.81;5160567;22;20050;-96
2023/09/04 05:02:37;;;;;;;13.15;12.18;;;;;;;16.35;100.00;95062.69;5035322;28;20454;-96
2023/09/04 05:05:03;;;;;;;10.77;10.13;;;;;;;16.66;100.00;95101.25;5066392;22;20058;-96
2023/09/04 05:07:29;;;;;;;11.03;10.00;;;;;;;16.60;100.00;95064.69;5298197;22;20063;-90
2023/09/04 05:09:55;;;;;;;10.60;9.95;;;;;;;16.66;100.00;95056.03;5080683;22;20030;-96
2023/09/04 05:12:21;;;;;;;8.13;7.53;;;;;;;16.22;100.00;95004.38;5023860;28;20030;-96
2023/09/04 05:14:46;;;;;;;9.02;8.32;;;;;;;16.37;100.00;94970.19;5026372;28;20053;-96
2023/09/04 05:17:12;;;;;;;8.55;7.60;;;;;;;16.68;100.00;95001.69;5030645;28;20056;-94
2023/09/04 05:19:38;;;;;;;7.78;7.28;;;;;;;16.27;100.00;94934.00;5010606;28;20010;-96
2023/09/04 05:22:03;;;;;;;7.60;7.03;;;;;;;16.39;100.00;94968.97;5024652;28;20034;-93
2023/09/04 05:24:29;;;;;;;8.57;7.78;;;;;;;16.66;100.00;94985.41;5026079;28;20037;-96
2023/09/04 05:26:54;;;;;;;9.23;7.38;;;;;;;16.49;100.00;94964.09;5023265;28;20034;-95
2023/09/04 05:29:20;;;;;;;8.55;7.75;;;;;;;16.66;100.00;94969.72;5009478;28;20034;-96
2023/09/04 05:31:45;;;;;;;8.02;7.53;;;;;;;16.61;100.00;94956.44;5021625;28;20026;-96
2023/09/04 05:34:11;;;;;;;8.35;7.63;;;;;;;16.61;100.00;94953.81;5029282;28;20592;-93
2023/09/04 05:36:36;;;;;;;8.90;8.10;;;;;;;16.77;100.00;94971.66;5019976;28;20091;-96
2023/09/04 05:39:02;;;;;;;8.52;7.90;;;;;;;16.85;100.00;94968.81;5021716;28;20505;-96
2023/09/04 05:41:28;;;;;;;7.82;7.15;;;;;;;16.70;100.00;94956.00;5020473;28;20026;-92
2023/09/04 05:43:53;;;;;;;7.15;6.50;;;;;;;16.79;100.00;94943.50;5015983;28;20033;-95
2023/09/04 05:46:19;;;;;;;6.53;6.13;;;;;;;16.81;100.00;94937.03;4999654;28;20567;-91
2023/09/04 05:48:46;;;;;;;5.75;5.35;;;;;;;16.79;100.00;94922.56;5014861;28;20018;-88
2023/09/04 05:51:12;;;;;;;5.72;5.32;;;;;;;16.68;100.00;94924.03;5016093;28;20080;-96
2023/09/04 05:53:37;;;;;;;6.07;5.60;;;;;;;16.80;100.00;94918.91;4997215;28;20026;-96
2023/09/04 05:56:04;;;;;;;5.28;4.97;;;;;;;16.74;100.00;94928.41;5012902;28;20482;-96
2023/09/04 05:58:29;;;;;;;5.68;5.18;;;;;;;16.69;100.00;94930.88;5010031;28;20026;-94
2023/09/04 06:00:55;;;;;;;5.38;4.97;;;;;;;16.80;100.00;94916.31;5011281;28;20396;-95
2023/09/04 06:03:20;;;;;;;5.25;4.95;;;;;;;16.73;100.00;94902.44;5011308;28;20378;-94
2023/09/04 06:05:46;;;;;;;5.57;5.18;;;;;;;16.61;100.00;94909.38;4995178;28;20037;-88
2023/09/04 06:08:11;;;;;;;5.47;5.18;;;;;;;16.70;100.00;94893.22;5013839;28;20061;-94
2023/09/04 06:10:37;;;;;;;5.40;4.90;;;;;;;16.70;100.00;94902.88;4996626;28;20404;-92
2023/09/04 06:13:02;;;;;;;4.63;4.30;;;;;;;16.66;100.00;94891.25;5012549;28;20487;-94
2023/09/04 06:15:28;;;;;;;4.70;4.40;;;;;;;16.59;100.00;94893.09;5010868;28;20022;-91
2023/09/04 06:17:53;;;;;;;5.22;4.80;;;;;;;16.64;100.00;94896.69;5011606;28;20037;-91
2023/09/04 06:20:20;;;;;;;4.93;4.43;;;;;;;16.60;100.00;94905.16;5012139;28;20467;-92
2023/09/04 06:22:45;;;;;;;4.63;4.32;;;;;;;16.65;100.00;94894.88;5013683;28;20025;-91
2023/09/04 06:25:11;;;;;;;4.78;4.47;;;;;;;16.77;100.00;94893.19;5010626;28;20399;-93
2023/09/04 06:27:36;;;;;;;5.03;4.63;;;;;;;16.67;100.00;94885.78;5012039;28;20476;-94
2023/09/04 06:30:03;;;;;;;5.63;5.22;;;;;;;16.69;100.00;94903.91;4994859;28;20049;-92
2023/09/04 06:32:31;;;;;;;4.93;4.53;;;;;;;16.70;100.00;94895.03;5011532;28;20339;-91
2023/09/04 06:34:56;;;;;;;5.78;5.38;;;;;;;16.70;100.00;94889.78;5011835;28;20041;-92
2023/09/04 06:37:21;;;;;;;5.45;5.05;;;;;;;16.68;100.00;94891.81;5010694;28;20556;-94
2023/09/04 06:39:47;;;;;;;5.63;5.22;;;;;;;16.70;100.00;94889.78;5012578;28;20058;-93
2023/09/04 06:42:12;;;;;;;5.53;5.00;;;;;;;16.60;100.00;94879.00;5011326;28;20026;-90
2023/09/04 06:44:37;;;;;;;5.57;5.07;;;;;;;16.50;100.00;94881.25;5012524;28;20104;-94
2023/09/04 06:47:03;;;;;;;5.90;5.32;;;;;;;16.66;100.00;94894.63;5011822;28;20410;-95
2023/09/04 06:49:28;;;;;;;5.85;5.45;;;;;;;16.71;100.00;94894.03;5013105;28;20034;-93
2023/09/04 06:51:54;;;;;;;5.43;5.03;;;;;;;16.63;100.00;94887.22;5010949;28;20061;-93
2023/09/04 06:54:19;;;;;;;5.47;5.00;;;;;;;16.64;100.00;94888.03;5014145;28;20034;-95
2023/09/04 06:56:45;;;;;;;5.22;4.82;;;;;;;16.59;100.00;94893.91;5013234;28;20026;-92
2023/09/04 06:59:10;;;;;;;4.93;4.63;;;;;;;16.53;100.00;94886.84;4996795;28;20034;-96
2023/09/04 07:01:35;;;;;;;5.22;4.88;;;;;;;16.59;100.00;94888.66;5012391;28;20480;-96
2023/09/04 07:04:01;;;;;;;5.45;5.05;;;;;;;16.64;100.00;94888.03;5012959;28;20021;-96
2023/09/04 07:06:26;;;;;;;5.85;5.20;;;;;;;16.64;100.00;94899.28;5014725;28;20030;-93
2023/09/04 07:08:53;;;;;;;5.72;5.28;;;;;;;16.65;100.00;94894.88;5012322;28;20018;-92
2023/09/04 07:11:18;;;;;;;5.65;5.25;;;;;;;16.66;100.00;94896.47;5012369;28;20026;-93
2023/09/04 07:13:44;;;;;;;5.63;5.22;;;;;;;16.63;100.00;94894.28;5010279;28;20498;-91
2023/09/04 07:16:09;;;;;;;5.45;5.10;;;;;;;16.56;100.00;94891.69;5012913;28;20435;-96
2023/09/04 07:18:35;;;;;;;5.93;5.18;;;;;;;16.74;100.00;94891.78;4998839;28;20033;-96
2023/09/04 07:21:00;;;;;;;6.75;5.30;;;;;;;16.71;100.00;94894.03;5014448;28;20033;-91
2023/09/04 07:23:26;;;;;;;5.28;4.78;;;;;;;16.80;100.00;94893.56;5011186;28;20124;-96
2023/09/04 07:25:54;;;;;;;6.22;5.57;;;;;;;16.82;100.00;94888.91;4997311;28;20053;-96
2023/09/04 07:28:20;;;;;;;6.30;5.70;;;;;;;16.86;100.00;94892.72;5014192;28;20450;-96
2023/09/04 07:30:46;;;;;;;5.60;5.20;;;;;;;16.92;100.00;94891.06;5016524;28;20026;-94
2023/09/04 07:33:11;;;;;;;5.88;5.38;;;;;;;16.89;100.00;94891.50;5012358;28;20493;-93
2023/09/04 07:35:37;;;;;;;5.45;5.05;;;;;;;16.82;100.00;94881.06;5011102;28;20111;-91
2023/09/04 07:38:03;;;;;;;5.07;4.78;;;;;;;16.94;100.00;94877.78;5008297;28;20048;-89
2023/09/04 07:40:28;;;;;;;6.00;5.35;;;;;;;16.93;100.00;94879.59;5009033;28;20103;-96
2023/09/04 07:42:54;;;;;;;5.47;5.07;;;;;;;16.93;100.00;94887.44;5008719;28;20052;-94
2023/09/04 07:45:22;;;;;;;5.68;5.25;;;;;;;16.92;100.00;94887.69;5007594;28;20030;-95
2023/09/04 07:47:48;;;;;;;5.10;4.80;;;;;;;16.96;100.00;94881.00;5010486;28;20426;-93
2023/09/04 07:50:13;;;;;;;5.38;4.97;;;;;;;16.96;100.00;94881.78;5008133;28;20436;-92
2023/09/04 07:52:40;;;;;;;5.57;5.07;;;;;;;17.04;100.00;94878.13;4992468;28;20049;-95
2023/09/04 07:55:08;;;;;;;4.88;4.50;;;;;;;16.96;100.00;94878.38;4992502;28;20419;-94
2023/09/04 07:57:34;;;;;;;5.00;4.60;;;;;;;17.07;100.00;94873.28;5009506;28;20026;-92
2023/09/04 07:59:59;;;;;;;7.00;5.43;;;;;;;17.14;100.00;94881.88;4991612;28;20036;-94
2023/09/04 08:02:25;;;;;;;5.65;5.03;;;;;;;17.24;100.00;94873.56;4991672;28;20076;-93
2023/09/04 08:04:51;;;;;;;5.93;5.50;;;;;;;16.99;100.00;94870.09;5008233;28;20030;-95
2023/09/04 08:07:17;;;;;;;5.40;5.00;;;;;;;17.09;100.00;94871.22;5008031;28;20491;-90
2023/09/04 08:09:42;;;;;;;5.32;4.90;;;;;;;17.23;100.00;94862.28;4990595;28;20060;-91
2023/09/04 08:12:09;;;;;;;6.53;5.15;;;;;;;17.32;100.00;94871.47;5006537;28;20085;-87
2023/09/04 08:14:36;;;;;;;5.13;4.80;;;;;;;17.33;100.00;94857.38;4989810;28;20053;-96
2023/09/04 08:17:03;;;;;;;5.22;4.78;;;;;;;17.23;100.00;94859.66;5007088;28;20483;-92
2023/09/04 08:19:28;;;;;;;5.28;4.88;;;;;;;17.13;100.00;94866.38;5006996;28;20491;-94
2023/09/04 08:21:54;;;;;;;5.53;5.20;;;;;;;17.23;100.00;94864.91;5008185;28;20065;-88
2023/09/04 08:24:19;;;;;;;6.00;5.47;;;;;;;17.28;100.00;94872.91;5007842;28;20108;-93
2023/09/04 08:26:45;;;;;;;5.32;4.90;;;;;;;17.33;100.00;94877.50;4990002;28;20259;-89
2023/09/04 08:29:10;;;;;;;5.65;5.30;;;;;;;17.36;100.00;94883.13;5006604;28;20040;-89
2023/09/04 08:31:36;;;;;;;5.78;5.28;;;;;;;17.35;100.00;94872.84;5007079;28;20030;-88
2023/09/04 08:34:02;;;;;;;5.78;5.38;;;;;;;17.29;100.00;94877.13;5006334;28;20028;-88
2023/09/04 08:36:28;;;;;;;6.15;5.53;;;;;;;17.26;100.00;94874.94;5007010;28;20541;-95
2023/09/04 08:38:53;;;;;;;5.90;5.50;;;;;;;17.21;100.00;94869.53;5006907;28;20030;-90
2023/09/04 08:41:20;;;;;;;5.57;5.25;;;;;;;17.12;100.00;94864.78;5006979;28;20034;-93
2023/09/04 08:43:48;;;;;;;5.90;5.30;;;;;;;17.12;100.00;94868.19;5006308;28;20037;-91
2023/09/04 08:46:15;;;;;;;5.95;4.80;;;;;;;17.07;100.00;94865.44;4990278;28;20510;-90
2023/09/04 08:48:41;;;;;;;5.65;5.15;;;;;;;17.12;100.00;94862.97;5006559;28;20046;-92
2023/09/04 08:51:08;;;;;;;6.22;5.65;;;;;;;17.13;100.00;94869.81;5006173;28;20088;-90
2023/09/04 08:53:35;;;;;;;6.38;5.88;;;;;;;17.13;100.00;94876.84;5006278;28;20037;-90
2023/09/04 08:56:02;;;;;;;6.22;5.70;;;;;;;17.09;100.00;94884.31;5006052;28;20084;-89
2023/09/04 08:58:28;;;;;;;5.40;5.00;;;;;;;17.12;100.00;94878.66;4990077;28;20173;-90
2023/09/04 09:00:54;;;;;;;6.65;6.15;;;;;;;17.12;100.00;94886.50;5006026;28;20473;-90
2023/09/04 09:03:20;;;;;;;6.80;6.35;;;;;;;17.07;100.00;94883.75;5006149;28;20022;-92
2023/09/04 09:05:47;;;;;;;5.80;5.38;;;;;;;17.04;100.00;94892.03;5006520;28;20520;-90
2023/09/04 09:08:12;;;;;;;10.48;5.93;;;;;;;17.04;100.00;94899.06;4989549;28;20081;-88
2023/09/04 09:10:40;;;;;;;5.90;5.50;;;;;;;17.03;100.00;94908.72;4989426;28;20533;-86
2023/09/04 09:13:07;;;;;;;6.65;6.15;;;;;;;17.02;100.00;94916.78;4989406;28;20037;-88
2023/09/04 09:15:33;;;;;;;6.75;6.20;;;;;;;17.00;100.00;94924.03;5006234;28;20483;-88
2023/09/04 09:17:58;;;;;;;7.07;6.53;;;;;;;16.96;100.00;94928.91;4989416;28;20056;-86
2023/09/04 09:20:34;;;;;;;7.82;7.30;;;;;;;17.03;100.00;94940.13;4989335;28;20080;-86
2023/09/04 09:23:01;;;;;;;7.95;7.32;;;;;;;16.98;100.00;94950.44;5005343;28;20503;-86
2023/09/04 09:25:29;;;;;;;7.10;6.60;;;;;;;17.04;100.00;94949.59;5006200;28;20026;-89
2023/09/04 09:28:05;;;;;;;7.15;6.75;;;;;;;16.99;100.00;94954.63;5009744;28;20045;-91
2023/09/04 09:30:35;;;;;;;7.20;6.70;;;;;;;16.97;100.00;94956.69;5010994;28;20121;-91
2023/09/04 09:33:08;;;;;;;7.97;7.13;;;;;;;16.94;100.00;94977.22;5009343;28;20168;-87
2023/09/04 09:35:33;;;;;;;9.38;8.57;;;;;;;16.89;100.00;94962.13;5009638;28;20022;-88
2023/09/04 09:38:02;;;;;;;8.38;7.78;;;;;;;16.86;100.00;94978.25;5010218;28;20501;-91
2023/09/04 09:40:28;;;;;;;7.93;7.40;;;;;;;16.84;100.00;94994.19;5011156;28;20052;-91
2023/09/04 09:42:54;;;;;;;8.25;7.65;;;;;;;16.84;100.00;94993.38;5008562;28;20037;-90
2023/09/04 09:45:19;;;;;;;9.48;7.78;;;;;;;16.80;100.00;95008.69;4993590;28;20033;-89
2023/09/04 09:47:44;;;;;;;8.43;7.75;;;;;;;16.78;100.00;95017.75;5010352;28;20037;-89
2023/09/04 09:50:10;;;;;;;8.82;8.32;;;;;;;16.76;100.00;95012.72;5009223;28;20080;-89
2023/09/04 09:52:36;;;;;;;11.10;10.20;;;;;;;16.81;100.00;95022.56;5008569;28;20025;-88
2023/09/04 09:55:01;;;;;;;10.45;9.55;;;;;;;16.78;100.00;95017.75;4992463;28;20034;-88
2023/09/04 09:57:27;;;;;;;10.98;10.10;;;;;;;16.73;100.00;95026.19;5008743;28;20026;-87
2023/09/04 09:59:52;;;;;;;9.82;9.10;;;;;;;16.71;100.00;95037.88;4991800;28;20096;-87
2023/09/04 10:02:18;;;;;;;10.15;9.20;;;;;;;16.74;100.00;95032.25;5010107;28;20026;-87
2023/09/04 10:04:44;;;;;;;10.07;9.35;;;;;;;16.70;100.00;95044.13;5009661;28;20026;-89
2023/09/04 10:07:11;;;;;;;10.98;9.93;;;;;;;16.66;100.00;95046.34;4991924;28;20119;-87
2023/09/04 10:09:44;;;;;;;12.50;11.60;;;;;;;16.66;100.00;95037.72;4991827;28;20249;-88
2023/09/04 10:12:26;;;;;;;11.80;10.68;;;;;;;16.63;100.00;95044.13;5007785;28;20021;-85
2023/09/04 10:14:55;;;;;;;12.00;10.98;;;;;;;16.67;100.00;95052.38;5009881;28;20519;-86
2023/09/04 10:17:22;;;;;;;;;;;;;;;16.70;100.00;95052.78;5008261;28;20132;-86
2023/09/04 10:19:48;;;;;;;10.35;9.55;;;;;;;16.74;100.00;95051.34;5008556;28;20000;-86
2023/09/04 10:22:36;;;;;;;10.85;9.93;;;;;;;16.74;100.00;95055.78;5007647;28;20087;-87
2023/09/04 10:25:27;;;;;;;11.75;10.68;;;;;;;16.69;100.00;95053.81;5007817;28;20092;-86
2023/09/04 10:28:03;;;;;;;10.90;10.10;;;;;;;16.63;100.00;95059.81;5008325;28;20092;-87
2023/09/04 10:30:30;;;;;;;10.48;9.68;;;;;;;16.64;100.00;95056.22;5007494;28;20068;-87
2023/09/04 10:32:56;;;;;;;12.40;11.27;;;;;;;16.66;100.00;95058.63;5008579;28;20036;-87
2023/09/04 10:35:21;;;;;;;11.68;10.68;;;;;;;16.69;100.00;95056.41;4991153;28;20034;-86
2023/09/04 10:37:49;;;;;;;11.50;10.70;;;;;;;16.69;100.00;95056.41;4990636;28;20045;-85
2023/09/04 10:40:15;;;;;;;11.02;9.98;;;;;;;16.76;100.00;95043.31;5007555;28;20026;-84
2023/09/04 10:42:41;;;;;;;10.68;9.77;;;;;;;16.77;100.00;95039.69;4991019;28;20121;-84
2023/09/04 10:45:12;;;;;;;10.57;9.43;;;;;;;16.76;100.00;95056.41;5007690;28;20468;-84
2023/09/04 10:47:46;;;;;;;9.85;9.05;;;;;;;16.80;100.00;95044.50;4990865;28;20030;-84
2023/09/04 10:50:33;;;;;;;9.82;9.02;;;;;;;16.72;100.00;95034.28;5007536;28;20072;-84
2023/09/04 10:53:00;;;;;;;6.78;6.30;;;;;;;16.59;100.00;95008.97;5007174;28;20029;-83
2023/09/04 10:55:26;;;;;;;7.65;6.97;;;;;;;16.75;100.00;95018.16;5008864;28;20037;-84
2023/09/04 10:57:57;;;;;;;9.73;9.13;;;;;;;16.63;100.00;95022.44;5007240;28;20025;-82
2023/09/04 11:00:36;;;;;;;5.93;5.53;;;;;;;16.72;100.00;95021.19;5006639;28;20073;-84
2023/09/04 11:03:15;;;;;;;6.63;6.10;;;;;;;16.55;100.00;95046.97;5007574;28;20029;-83
2023/09/04 11:06:03;;;;;;;4.88;4.53;;;;;;;16.65;100.00;95028.25;5008480;28;20074;-82
2023/09/04 11:08:29;;;;;;;4.40;4.05;;;;;;;16.66;100.00;95016.78;5006500;28;20084;-84
2023/09/04 11:11:03;;;;;;;5.03;4.63;;;;;;;16.71;100.00;95004.69;5007081;28;20045;-83
2023/09/04 11:13:29;;;;;;;4.68;4.20;;;;;;;16.52;100.00;94989.03;5006444;28;20025;-83
2023/09/04 11:15:55;;;;;;;4.38;4.07;;;;;;;16.76;100.00;95012.72;4991021;28;20053;-83
2023/09/04 11:18:21;;;;;;;5.80;4.72;;;;;;;16.86;100.00;95018.31;4989879;28;20033;-82
2023/09/04 11:20:53;;;;;;;4.10;3.70;;;;;;;16.51;100.00;94972.53;5007111;28;20447;-83
2023/09/04 11:23:19;;;;;;;4.78;4.00;;;;;;;16.59;100.00;95014.19;5006619;28;20104;-83